sensor_id;sensor_type;location;lat;lon;timestamp;pressure;altitude;pressure_sealevel;temperature;humidity
10700;BME280;5401;41.986;21.452;2023-06-14T00:02:01;97997.25;;;20.17;78.18
10700;BME280;5401;41.986;21.452;2023-06-14T00:04:28;98012.69;;;20.26;78.17
10700;BME280;5401;41.986;21.452;2023-06-14T00:06:56;98002.94;;;20.20;78.12
10700;BME280;5401;41.986;21.452;2023-06-14T00:09:24;98002.94;;;20.15;78.08
10700;BME280;5401;41.986;21.452;2023-06-14T00:11:52;98011.72;;;20.02;78.48
10700;BME280;5401;41.986;21.452;2023-06-14T00:14:21;98008.81;;;19.89;78.64
10700;BME280;5401;41.986;21.452;2023-06-14T00:16:50;98000.97;;;19.83;78.71
10700;BME280;5401;41.986;21.452;2023-06-14T00:19:18;97999.88;;;19.84;78.87
10700;BME280;5401;41.986;21.452;2023-06-14T00:21:47;98006.13;;;19.74;78.96
10700;BME280;5401;41.986;21.452;2023-06-14T00:24:14;98008.31;;;19.72;78.90
10700;BME280;5401;41.986;21.452;2023-06-14T00:26:42;98011.34;;;19.66;79.52
10700;BME280;5401;41.986;21.452;2023-06-14T00:29:09;98008.63;;;19.66;79.47
10700;BME280;5401;41.986;21.452;2023-06-14T00:31:38;98011.06;;;19.67;79.51
10700;BME280;5401;41.986;21.452;2023-06-14T00:34:06;98014.00;;;19.71;79.73
10700;BME280;5401;41.986;21.452;2023-06-14T00:36:33;98009.66;;;19.75;79.53
10700;BME280;5401;41.986;21.452;2023-06-14T00:39:01;97996.38;;;19.73;79.62
10700;BME280;5401;41.986;21.452;2023-06-14T00:41:29;97995.31;;;19.69;79.81
10700;BME280;5401;41.986;21.452;2023-06-14T00:43:57;97992.31;;;19.66;80.00
10700;BME280;5401;41.986;21.452;2023-06-14T00:46:25;97999.66;;;19.66;79.87
10700;BME280;5401;41.986;21.452;2023-06-14T00:48:55;97998.03;;;19.69;80.12
10700;BME280;5401;41.986;21.452;2023-06-14T00:51:23;97998.56;;;19.71;80.13
10700;BME280;5401;41.986;21.452;2023-06-14T00:53:51;97993.13;;;19.71;80.28
10700;BME280;5401;41.986;21.452;2023-06-14T00:56:18;97997.72;;;19.71;79.99
10700;BME280;5401;41.986;21.452;2023-06-14T00:58:47;98004.22;;;19.75;80.18
10700;BME280;5401;41.986;21.452;2023-06-14T01:01:15;98000.44;;;19.76;80.33
10700;BME280;5401;41.986;21.452;2023-06-14T01:03:43;97992.00;;;19.77;80.29
10700;BME280;5401;41.986;21.452;2023-06-14T01:06:17;97988.81;;;19.66;80.29
10700;BME280;5401;41.986;21.452;2023-06-14T01:09:01;97991.56;;;19.51;80.87
10700;BME280;5401;41.986;21.452;2023-06-14T01:11:32;97976.66;;;19.38;81.21
10700;BME280;5401;41.986;21.452;2023-06-14T01:14:04;97998.38;;;19.38;81.32
10700;BME280;5401;41.986;21.452;2023-06-14T01:16:34;97993.28;;;19.27;81.14
10700;BME280;5401;41.986;21.452;2023-06-14T01:19:05;97997.91;;;19.22;81.78
10700;BME280;5401;41.986;21.452;2023-06-14T01:21:39;97999.81;;;19.16;82.33
10700;BME280;5401;41.986;21.452;2023-06-14T01:24:09;97993.03;;;19.14;82.67
10700;BME280;5401;41.986;21.452;2023-06-14T01:26:38;97996.28;;;19.16;82.99
10700;BME280;5401;41.986;21.452;2023-06-14T01:29:12;98002.00;;;19.19;82.38
10700;BME280;5401;41.986;21.452;2023-06-14T01:31:43;97991.66;;;19.21;82.93
10700;BME280;5401;41.986;21.452;2023-06-14T01:34:11;97996.53;;;19.24;83.00
10700;BME280;5401;41.986;21.452;2023-06-14T01:36:41;97994.09;;;19.18;82.96
10700;BME280;5401;41.986;21.452;2023-06-14T01:39:14;97999.81;;;19.16;82.56
10700;BME280;5401;41.986;21.452;2023-06-14T01:41:42;98010.94;;;19.20;82.70
10700;BME280;5401;41.986;21.452;2023-06-14T01:44:12;98002.53;;;19.21;82.96
10700;BME280;5401;41.986;21.452;2023-06-14T01:46:42;98003.06;;;19.23;82.89
10700;BME280;5401;41.986;21.452;2023-06-14T01:49:10;98005.78;;;19.23;83.16
10700;BME280;5401;41.986;21.452;2023-06-14T01:51:38;98011.75;;;19.20;83.05
10700;BME280;5401;41.986;21.452;2023-06-14T01:54:05;98014.72;;;19.19;83.11
10700;BME280;5401;41.986;21.452;2023-06-14T01:56:34;98018.25;;;19.14;83.19
10700;BME280;5401;41.986;21.452;2023-06-14T01:59:01;98020.97;;;19.14;83.74
10700;BME280;5401;41.986;21.452;2023-06-14T02:01:29;98009.88;;;19.11;83.88
10700;BME280;5401;41.986;21.452;2023-06-14T02:03:57;98023.97;;;19.18;83.57
10700;BME280;5401;41.986;21.452;2023-06-14T02:06:26;98017.47;;;19.14;83.83
10700;BME280;5401;41.986;21.452;2023-06-14T02:08:54;98029.41;;;19.13;83.66
10700;BME280;5401;41.986;21.452;2023-06-14T02:11:21;98031.28;;;19.12;83.86
10700;BME280;5401;41.986;21.452;2023-06-14T02:13:50;98031.59;;;19.01;83.95
10700;BME280;5401;41.986;21.452;2023-06-14T02:16:17;98029.94;;;18.90;83.98
10700;BME280;5401;41.986;21.452;2023-06-14T02:18:45;98034.28;;;18.91;84.68
10700;BME280;5401;41.986;21.452;2023-06-14T02:21:13;98032.41;;;18.96;84.82
10700;BME280;5401;41.986;21.452;2023-06-14T02:23:40;98032.94;;;18.98;84.51
10700;BME280;5401;41.986;21.452;2023-06-14T02:26:07;98029.16;;;18.99;85.15
10700;BME280;5401;41.986;21.452;2023-06-14T02:28:35;98024.56;;;18.95;84.89
10700;BME280;5401;41.986;21.452;2023-06-14T02:31:04;98031.59;;;18.96;85.40
10700;BME280;5401;41.986;21.452;2023-06-14T02:33:33;98036.47;;;18.99;84.98
10700;BME280;5401;41.986;21.452;2023-06-14T02:36:01;98038.09;;;19.05;85.51
10700;BME280;5401;41.986;21.452;2023-06-14T02:38:29;98034.31;;;19.11;85.63
10700;BME280;5401;41.986;21.452;2023-06-14T02:40:57;98036.19;;;19.15;85.30
10700;BME280;5401;41.986;21.452;2023-06-14T02:43:26;98037.28;;;19.04;84.96
10700;BME280;5401;41.986;21.452;2023-06-14T02:45:53;98037.53;;;18.93;85.81
10700;BME280;5401;41.986;21.452;2023-06-14T02:48:22;98033.19;;;18.87;85.32
10700;BME280;5401;41.986;21.452;2023-06-14T02:50:50;98043.50;;;18.85;86.07
10700;BME280;5401;41.986;21.452;2023-06-14T02:53:17;98034.84;;;18.83;86.22
10700;BME280;5401;41.986;21.452;2023-06-14T02:55:45;98041.31;;;18.82;86.04
10700;BME280;5401;41.986;21.452;2023-06-14T02:58:12;98041.63;;;18.81;85.66
10700;BME280;5401;41.986;21.452;2023-06-14T03:00:40;98049.19;;;18.74;85.76
10700;BME280;5401;41.986;21.452;2023-06-14T03:03:08;98050.28;;;18.63;86.09
10700;BME280;5401;41.986;21.452;2023-06-14T03:05:44;98052.72;;;18.59;86.32
10700;BME280;5401;41.986;21.452;2023-06-14T03:08:13;98048.66;;;18.57;86.47
10700;BME280;5401;41.986;21.452;2023-06-14T03:10:43;98051.09;;;18.58;86.05
10700;BME280;5401;41.986;21.452;2023-06-14T03:13:11;98053.53;;;18.50;86.68
10700;BME280;5401;41.986;21.452;2023-06-14T03:15:38;98052.41;;;18.41;86.98
10700;BME280;5401;41.986;21.452;2023-06-14T03:18:07;98042.66;;;18.35;86.95
10700;BME280;5401;41.986;21.452;2023-06-14T03:20:35;98046.75;;;18.43;86.36
10700;BME280;5401;41.986;21.452;2023-06-14T03:23:04;98046.75;;;18.43;86.27
10700;BME280;5401;41.986;21.452;2023-06-14T03:25:32;98046.75;;;18.43;86.58
10700;BME280;5401;41.986;21.452;2023-06-14T03:28:01;98059.47;;;18.47;86.43
10700;BME280;5401;41.986;21.452;2023-06-14T03:30:29;98062.47;;;18.51;86.86
10700;BME280;5401;41.986;21.452;2023-06-14T03:32:57;98061.13;;;18.53;86.34
10700;BME280;5401;41.986;21.452;2023-06-14T03:35:27;98064.38;;;18.50;86.32
10700;BME280;5401;41.986;21.452;2023-06-14T03:37:55;98071.41;;;18.51;86.30
10700;BME280;5401;41.986;21.452;2023-06-14T03:40:24;98072.22;;;18.52;86.26
10700;BME280;5401;41.986;21.452;2023-06-14T03:42:53;98061.66;;;18.55;86.53
10700;BME280;5401;41.986;21.452;2023-06-14T03:45:21;98063.00;;;18.58;86.54
10700;BME280;5401;41.986;21.452;2023-06-14T03:47:49;98062.75;;;18.59;86.03
10700;BME280;5401;41.986;21.452;2023-06-14T03:50:17;98052.75;;;18.64;85.97
10700;BME280;5401;41.986;21.452;2023-06-14T03:52:46;98069.28;;;18.73;85.93
10700;BME280;5401;41.986;21.452;2023-06-14T03:55:14;98065.22;;;18.70;85.79
10700;BME280;5401;41.986;21.452;2023-06-14T03:57:46;98079.03;;;18.69;86.55
10700;BME280;5401;41.986;21.452;2023-06-14T04:00:14;98071.44;;;18.71;86.23
10700;BME280;5401;41.986;21.452;2023-06-14T04:02:42;98076.06;;;18.60;85.86
10700;BME280;5401;41.986;21.452;2023-06-14T04:05:11;98080.66;;;18.55;86.85
10700;BME280;5401;41.986;21.452;2023-06-14T04:07:38;98082.00;;;18.53;86.32
10700;BME280;5401;41.986;21.452;2023-06-14T04:10:11;98074.41;;;18.55;86.64
10700;BME280;5401;41.986;21.452;2023-06-14T04:12:39;98081.47;;;18.60;86.79
10700;BME280;5401;41.986;21.452;2023-06-14T04:15:09;98074.97;;;18.71;86.82
10700;BME280;5401;41.986;21.452;2023-06-14T04:17:37;98089.34;;;18.82;86.44
10700;BME280;5401;41.986;21.452;2023-06-14T04:20:06;98080.94;;;18.88;85.95
10700;BME280;5401;41.986;21.452;2023-06-14T04:22:35;98083.38;;;18.94;86.34
10700;BME280;5401;41.986;21.452;2023-06-14T04:25:03;98086.41;;;19.03;85.83
10700;BME280;5401;41.986;21.452;2023-06-14T04:27:32;98088.59;;;19.11;85.26
10700;BME280;5401;41.986;21.452;2023-06-14T04:30:01;98087.19;;;19.18;85.39
10700;BME280;5401;41.986;21.452;2023-06-14T04:32:31;98076.06;;;19.20;84.70
10700;BME280;5401;41.986;21.452;2023-06-14T04:34:59;98083.41;;;19.24;84.50
10700;BME280;5401;41.986;21.452;2023-06-14T04:37:29;98083.94;;;19.36;84.62
10700;BME280;5401;41.986;21.452;2023-06-14T04:39:57;98085.81;;;19.45;83.90
10700;BME280;5401;41.986;21.452;2023-06-14T04:42:25;98085.19;;;19.73;83.49
10700;BME280;5401;41.986;21.452;2023-06-14T04:44:57;98085.97;;;19.98;82.78
10700;BME280;5401;41.986;21.452;2023-06-14T04:47:25;98090.47;;;20.22;82.15
10700;BME280;5401;41.986;21.452;2023-06-14T04:49:57;98094.63;;;20.53;81.35
10700;BME280;5401;41.986;21.452;2023-06-14T04:52:26;98100.72;;;20.83;80.48
10700;BME280;5401;41.986;21.452;2023-06-14T04:54:56;98093.19;;;21.36;79.79
10700;BME280;5401;41.986;21.452;2023-06-14T04:57:23;98099.78;;;21.86;77.93
10700;BME280;5401;41.986;21.452;2023-06-14T04:59:51;98094.81;;;22.12;76.62
10700;BME280;5401;41.986;21.452;2023-06-14T05:02:21;98095.50;;;22.27;76.37
10700;BME280;5401;41.986;21.452;2023-06-14T05:04:50;98095.19;;;22.28;75.63
10700;BME280;5401;41.986;21.452;2023-06-14T05:07:19;98094.09;;;22.29;75.49
10700;BME280;5401;41.986;21.452;2023-06-14T05:09:49;98098.72;;;22.29;75.39
10700;BME280;5401;41.986;21.452;2023-06-14T05:12:17;98107.72;;;22.29;75.45
10700;BME280;5401;41.986;21.452;2023-06-14T05:14:45;98097.97;;;22.23;74.74
10700;BME280;5401;41.986;21.452;2023-06-14T05:17:12;98107.44;;;22.08;74.68
10700;BME280;5401;41.986;21.452;2023-06-14T05:19:40;98116.03;;;21.96;75.33
10700;BME280;5401;41.986;21.452;2023-06-14T05:22:07;98110.97;;;21.85;75.11
10700;BME280;5401;41.986;21.452;2023-06-14T05:24:37;98111.66;;;21.72;75.11
10700;BME280;5401;41.986;21.452;2023-06-14T05:27:04;98119.06;;;21.67;75.27
10700;BME280;5401;41.986;21.452;2023-06-14T05:29:33;98111.69;;;21.67;75.14
10700;BME280;5401;41.986;21.452;2023-06-14T05:32:00;98105.84;;;21.55;75.03
10700;BME280;5401;41.986;21.452;2023-06-14T05:34:29;98111.03;;;21.52;75.14
10700;BME280;5401;41.986;21.452;2023-06-14T05:36:56;98118.09;;;21.53;76.00
10700;BME280;5401;41.986;21.452;2023-06-14T05:39:24;98119.41;;;21.60;75.55
10700;BME280;5401;41.986;21.452;2023-06-14T05:41:53;98126.72;;;21.65;75.87
10700;BME280;5401;41.986;21.452;2023-06-14T05:44:21;98132.59;;;21.77;75.35
10700;BME280;5401;41.986;21.452;2023-06-14T05:46:48;98121.47;;;21.96;74.85
10700;BME280;5401;41.986;21.452;2023-06-14T05:49:17;98122.88;;;22.17;74.19
10700;BME280;5401;41.986;21.452;2023-06-14T05:51:45;98120.47;;;22.34;73.65
10700;BME280;5401;41.986;21.452;2023-06-14T05:54:14;98129.13;;;22.41;73.92
10700;BME280;5401;41.986;21.452;2023-06-14T05:56:41;98135.19;;;22.56;73.24
10700;BME280;5401;41.986;21.452;2023-06-14T05:59:10;98133.91;;;22.90;72.83
10700;BME280;5401;41.986;21.452;2023-06-14T06:01:37;98136.09;;;23.25;71.38
10700;BME280;5401;41.986;21.452;2023-06-14T06:04:06;98137.81;;;23.52;70.49
10700;BME280;5401;41.986;21.452;2023-06-14T06:06:33;98135.56;;;23.72;70.21
10700;BME280;5401;41.986;21.452;2023-06-14T06:09:01;98142.19;;;24.11;69.13
10700;BME280;5401;41.986;21.452;2023-06-14T06:11:29;98127.13;;;24.40;68.55
10700;BME280;5401;41.986;21.452;2023-06-14T06:13:57;98142.09;;;24.70;67.60
10700;BME280;5401;41.986;21.452;2023-06-14T06:16:26;98146.13;;;24.72;67.26
10700;BME280;5401;41.986;21.452;2023-06-14T06:18:53;98130.53;;;24.73;67.00
10700;BME280;5401;41.986;21.452;2023-06-14T06:21:20;98149.97;;;24.84;66.46
10700;BME280;5401;41.986;21.452;2023-06-14T06:23:48;98144.44;;;24.63;66.70
10700;BME280;5401;41.986;21.452;2023-06-14T06:26:16;98136.66;;;24.30;66.66
10700;BME280;5401;41.986;21.452;2023-06-14T06:28:44;98139.66;;;24.15;66.89
10700;BME280;5401;41.986;21.452;2023-06-14T06:31:11;98149.72;;;24.06;67.28
10700;BME280;5401;41.986;21.452;2023-06-14T06:33:40;98149.78;;;24.01;67.05
10700;BME280;5401;41.986;21.452;2023-06-14T06:36:08;98151.94;;;24.04;67.57
10700;BME280;5401;41.986;21.452;2023-06-14T06:38:35;98154.88;;;24.21;67.07
10700;BME280;5401;41.986;21.452;2023-06-14T06:41:03;98147.59;;;24.16;66.98
10700;BME280;5401;41.986;21.452;2023-06-14T06:43:30;98143.75;;;24.44;66.53
10700;BME280;5401;41.986;21.452;2023-06-14T06:45:58;98147.47;;;24.61;66.43
10700;BME280;5401;41.986;21.452;2023-06-14T06:48:25;98152.47;;;24.46;65.84
10700;BME280;5401;41.986;21.452;2023-06-14T06:50:55;98146.97;;;24.59;65.89
10700;BME280;5401;41.986;21.452;2023-06-14T06:53:22;98154.91;;;25.09;64.96
10700;BME280;5401;41.986;21.452;2023-06-14T06:55:50;98157.75;;;25.39;64.38
10700;BME280;5401;41.986;21.452;2023-06-14T06:58:18;98160.41;;;25.66;64.07
10700;BME280;5401;41.986;21.452;2023-06-14T07:01:03;98143.56;;;25.89;63.22
10700;BME280;5401;41.986;21.452;2023-06-14T07:03:31;98150.00;;;26.15;62.36
10700;BME280;5401;41.986;21.452;2023-06-14T07:06:00;98156.88;;;26.34;62.02
10700;BME280;5401;41.986;21.452;2023-06-14T07:08:27;98156.75;;;26.39;61.57
10700;BME280;5401;41.986;21.452;2023-06-14T07:10:55;98156.94;;;26.42;61.31
10700;BME280;5401;41.986;21.452;2023-06-14T07:13:23;98158.28;;;26.61;61.40
10700;BME280;5401;41.986;21.452;2023-06-14T07:15:50;98146.69;;;26.73;60.44
10700;BME280;5401;41.986;21.452;2023-06-14T07:18:19;98159.47;;;26.77;60.39
10700;BME280;5401;41.986;21.452;2023-06-14T07:20:47;98155.78;;;26.82;60.48
10700;BME280;5401;41.986;21.452;2023-06-14T07:23:16;98142.72;;;27.04;60.00
10700;BME280;5401;41.986;21.452;2023-06-14T07:25:43;98144.84;;;27.65;59.04
10700;BME280;5401;41.986;21.452;2023-06-14T07:28:11;98140.03;;;28.16;58.03
10700;BME280;5401;41.986;21.452;2023-06-14T07:30:38;98138.88;;;28.63;56.95
10700;BME280;5401;41.986;21.452;2023-06-14T07:33:06;98139.88;;;28.58;56.63
10700;BME280;5401;41.986;21.452;2023-06-14T07:35:34;98146.50;;;28.20;56.75
10700;BME280;5401;41.986;21.452;2023-06-14T07:38:02;98148.06;;;28.30;56.69
10700;BME280;5401;41.986;21.452;2023-06-14T07:40:31;98148.03;;;28.38;56.48
10700;BME280;5401;41.986;21.452;2023-06-14T07:42:58;98142.44;;;28.55;55.96
10700;BME280;5401;41.986;21.452;2023-06-14T07:45:27;98139.41;;;29.05;55.36
10700;BME280;5401;41.986;21.452;2023-06-14T07:47:55;98149.31;;;29.46;54.90
10700;BME280;5401;41.986;21.452;2023-06-14T07:50:23;98128.97;;;29.51;53.93
10700;BME280;5401;41.986;21.452;2023-06-14T07:52:51;98142.28;;;30.01;53.17
10700;BME280;5401;41.986;21.452;2023-06-14T07:55:18;98142.34;;;30.25;52.91
10700;BME280;5401;41.986;21.452;2023-06-14T07:57:47;98130.63;;;30.52;52.82
10700;BME280;5401;41.986;21.452;2023-06-14T08:00:16;98122.59;;;30.47;52.13
10700;BME280;5401;41.986;21.452;2023-06-14T08:02:44;98127.66;;;30.56;52.06
10700;BME280;5401;41.986;21.452;2023-06-14T08:05:12;98140.25;;;30.22;52.07
10700;BME280;5401;41.986;21.452;2023-06-14T08:07:40;98138.16;;;29.43;52.47
10700;BME280;5401;41.986;21.452;2023-06-14T08:10:09;98135.47;;;28.86;53.25
10700;BME280;5401;41.986;21.452;2023-06-14T08:12:37;98124.56;;;28.32;53.97
10700;BME280;5401;41.986;21.452;2023-06-14T08:15:06;98121.94;;;28.35;54.24
10700;BME280;5401;41.986;21.452;2023-06-14T08:17:35;98123.50;;;28.82;53.88
10700;BME280;5401;41.986;21.452;2023-06-14T08:20:03;98126.84;;;29.36;53.03
10700;BME280;5401;41.986;21.452;2023-06-14T08:22:32;98117.47;;;29.29;52.81
10700;BME280;5401;41.986;21.452;2023-06-14T08:25:00;98129.66;;;29.28;52.86
10700;BME280;5401;41.986;21.452;2023-06-14T08:27:27;98125.72;;;29.08;52.90
10700;BME280;5401;41.986;21.452;2023-06-14T08:29:55;98123.38;;;28.78;53.13
10700;BME280;5401;41.986;21.452;2023-06-14T08:32:24;98116.91;;;28.37;53.45
10700;BME280;5401;41.986;21.452;2023-06-14T08:34:53;98126.03;;;28.30;53.66
10700;BME280;5401;41.986;21.452;2023-06-14T08:37:20;98124.16;;;28.50;53.60
10700;BME280;5401;41.986;21.452;2023-06-14T08:39:48;98123.16;;;28.83;52.85
10700;BME280;5401;41.986;21.452;2023-06-14T08:42:16;98128.97;;;29.10;52.57
10700;BME280;5401;41.986;21.452;2023-06-14T08:44:46;98121.38;;;29.08;52.48
10700;BME280;5401;41.986;21.452;2023-06-14T08:47:14;98124.22;;;29.19;52.13
10700;BME280;5401;41.986;21.452;2023-06-14T08:49:46;98122.66;;;29.30;51.90
10700;BME280;5401;41.986;21.452;2023-06-14T08:52:16;98115.81;;;29.36;51.85
10700;BME280;5401;41.986;21.452;2023-06-14T08:54:47;98134.75;;;29.58;51.71
10700;BME280;5401;41.986;21.452;2023-06-14T08:57:14;98129.25;;;29.58;51.46
10700;BME280;5401;41.986;21.452;2023-06-14T08:59:46;98131.47;;;29.44;51.42
10700;BME280;5401;41.986;21.452;2023-06-14T09:02:18;98121.16;;;29.53;51.30
10700;BME280;5401;41.986;21.452;2023-06-14T09:04:49;98115.34;;;29.14;51.72
10700;BME280;5401;41.986;21.452;2023-06-14T09:07:17;98118.16;;;29.26;52.03
10700;BME280;5401;41.986;21.452;2023-06-14T09:09:45;98084.91;;;29.43;51.11
10700;BME280;5401;41.986;21.452;2023-06-14T09:12:13;98087.56;;;29.19;51.37
10700;BME280;5401;41.986;21.452;2023-06-14T09:14:42;98096.72;;;29.31;51.68
10700;BME280;5401;41.986;21.452;2023-06-14T09:17:13;98105.06;;;29.55;51.49
10700;BME280;5401;41.986;21.452;2023-06-14T09:19:41;98086.59;;;29.87;51.04
10700;BME280;5401;41.986;21.452;2023-06-14T09:22:11;98084.75;;;30.15;50.39
10700;BME280;5401;41.986;21.452;2023-06-14T09:24:41;98095.28;;;30.45;50.12
10700;BME280;5401;41.986;21.452;2023-06-14T09:27:15;98082.38;;;30.37;49.97
10700;BME280;5401;41.986;21.452;2023-06-14T09:29:44;98063.25;;;30.20;49.57
10700;BME280;5401;41.986;21.452;2023-06-14T09:32:11;98076.81;;;30.14;50.01
10700;BME280;5401;41.986;21.452;2023-06-14T09:34:39;98079.00;;;30.08;49.73
10700;BME280;5401;41.986;21.452;2023-06-14T09:37:35;98080.84;;;30.04;49.84
10700;BME280;5401;41.986;21.452;2023-06-14T09:40:05;98076.91;;;29.93;49.85
10700;BME280;5401;41.986;21.452;2023-06-14T09:42:34;98056.31;;;29.59;50.12
10700;BME280;5401;41.986;21.452;2023-06-14T09:45:03;98042.47;;;29.35;49.93
10700;BME280;5401;41.986;21.452;2023-06-14T09:47:32;98067.78;;;29.49;49.88
10700;BME280;5401;41.986;21.452;2023-06-14T09:50:01;98070.91;;;29.47;49.97
10700;BME280;5401;41.986;21.452;2023-06-14T09:52:40;98072.22;;;29.30;50.36
10700;BME280;5401;41.986;21.452;2023-06-14T09:55:18;98058.75;;;28.68;50.56
10700;BME280;5401;41.986;21.452;2023-06-14T09:57:53;98049.34;;;28.40;51.07
10700;BME280;5401;41.986;21.452;2023-06-14T10:00:37;98029.56;;;28.18;51.16
10700;BME280;5401;41.986;21.452;2023-06-14T10:03:21;98021.69;;;28.08;51.15
10700;BME280;5401;41.986;21.452;2023-06-14T10:05:56;98036.84;;;28.42;51.32
10700;BME280;5401;41.986;21.452;2023-06-14T10:08:33;98036.84;;;28.91;50.85
10700;BME280;5401;41.986;21.452;2023-06-14T10:11:04;98026.53;;;29.20;50.30
10700;BME280;5401;41.986;21.452;2023-06-14T10:13:38;98029.06;;;29.45;49.69
10700;BME280;5401;41.986;21.452;2023-06-14T10:16:12;98010.44;;;29.54;49.48
10700;BME280;5401;41.986;21.452;2023-06-14T10:18:59;98015.16;;;29.54;49.64
10700;BME280;5401;41.986;21.452;2023-06-14T10:21:37;97993.75;;;29.39;49.63
10700;BME280;5401;41.986;21.452;2023-06-14T10:24:13;97988.59;;;29.49;49.00
10700;BME280;5401;41.986;21.452;2023-06-14T10:26:53;98006.38;;;29.40;49.15
10700;BME280;5401;41.986;21.452;2023-06-14T10:29:26;97995.56;;;29.47;49.16
10700;BME280;5401;41.986;21.452;2023-06-14T10:32:00;97987.47;;;29.62;48.62
10700;BME280;5401;41.986;21.452;2023-06-14T10:34:30;97992.13;;;29.38;49.11
10700;BME280;5401;41.986;21.452;2023-06-14T10:37:07;97975.44;;;29.23;48.83
10700;BME280;5401;41.986;21.452;2023-06-14T10:40:05;97993.50;;;29.44;49.02
10700;BME280;5401;41.986;21.452;2023-06-14T10:42:54;97971.59;;;29.59;48.53
10700;BME280;5401;41.986;21.452;2023-06-14T10:48:57;97971.88;;;30.25;47.96
10700;BME280;5401;41.986;21.452;2023-06-14T10:51:37;97979.78;;;30.03;47.85
10700;BME280;5401;41.986;21.452;2023-06-14T10:57:18;97973.72;;;29.30;48.61
10700;BME280;5401;41.986;21.452;2023-06-14T10:59:50;97974.97;;;29.01;48.91
10700;BME280;5401;41.986;21.452;2023-06-14T11:03:16;97978.00;;;28.87;49.21
10700;BME280;5401;41.986;21.452;2023-06-14T11:05:50;97975.44;;;29.03;49.28
10700;BME280;5401;41.986;21.452;2023-06-14T11:09:00;97980.94;;;29.23;48.68
10700;BME280;5401;41.986;21.452;2023-06-14T11:12:05;97985.13;;;29.52;48.35
10700;BME280;5401;41.986;21.452;2023-06-14T11:14:37;97956.03;;;29.55;48.49
10700;BME280;5401;41.986;21.452;2023-06-14T11:17:19;97954.00;;;29.64;48.37
10700;BME280;5401;41.986;21.452;2023-06-14T11:20:15;97955.53;;;29.85;47.61
10700;BME280;5401;41.986;21.452;2023-06-14T11:22:49;97945.53;;;29.81;48.08
10700;BME280;5401;41.986;21.452;2023-06-14T11:25:24;97953.94;;;30.08;47.63
10700;BME280;5401;41.986;21.452;2023-06-14T11:28:08;97948.75;;;30.30;47.30
10700;BME280;5401;41.986;21.452;2023-06-14T11:30:59;97972.88;;;30.56;47.00
10700;BME280;5401;41.986;21.452;2023-06-14T11:33:30;97954.28;;;30.30;47.69
10700;BME280;5401;41.986;21.452;2023-06-14T11:36:06;97952.88;;;30.12;47.31
10700;BME280;5401;41.986;21.452;2023-06-14T11:38:47;97949.38;;;29.56;47.81
10700;BME280;5401;41.986;21.452;2023-06-14T11:41:37;97949.25;;;29.52;48.37
10700;BME280;5401;41.986;21.452;2023-06-14T11:44:10;97947.88;;;29.58;48.00
10700;BME280;5401;41.986;21.452;2023-06-14T11:46:41;97897.41;;;29.58;47.61
10700;BME280;5401;41.986;21.452;2023-06-14T11:49:18;97938.16;;;29.96;46.93
10700;BME280;5401;41.986;21.452;2023-06-14T11:51:56;97907.31;;;29.94;46.47
10700;BME280;5401;41.986;21.452;2023-06-14T11:54:58;97934.66;;;30.23;46.31
10700;BME280;5401;41.986;21.452;2023-06-14T11:57:49;97922.13;;;30.14;46.65
10700;BME280;5401;41.986;21.452;2023-06-14T12:00:24;97924.22;;;30.05;46.70
10700;BME280;5401;41.986;21.452;2023-06-14T12:02:57;97903.88;;;29.62;46.83
10700;BME280;5401;41.986;21.452;2023-06-14T12:05:27;97920.25;;;29.35;47.42
10700;BME280;5401;41.986;21.452;2023-06-14T12:08:04;97904.56;;;29.03;47.72
10700;BME280;5401;41.986;21.452;2023-06-14T12:10:41;97934.50;;;28.93;48.11
10700;BME280;5401;41.986;21.452;2023-06-14T12:13:09;97911.91;;;28.67;48.44
10700;BME280;5401;41.986;21.452;2023-06-14T12:15:39;97918.13;;;28.76;48.77
10700;BME280;5401;41.986;21.452;2023-06-14T12:18:12;97929.91;;;28.65;48.70
10700;BME280;5401;41.986;21.452;2023-06-14T12:20:50;97907.66;;;28.09;49.30
10700;BME280;5401;41.986;21.452;2023-06-14T12:23:45;97930.53;;;28.01;49.64
10700;BME280;5401;41.986;21.452;2023-06-14T12:26:14;97935.06;;;27.97;50.00
10700;BME280;5401;41.986;21.452;2023-06-14T12:28:44;97908.50;;;28.01;49.86
10700;BME280;5401;41.986;21.452;2023-06-14T12:31:19;97928.00;;;28.16;49.69
10700;BME280;5401;41.986;21.452;2023-06-14T12:33:59;97926.91;;;28.09;49.63
10700;BME280;5401;41.986;21.452;2023-06-14T12:36:43;97902.75;;;27.86;49.81
10700;BME280;5401;41.986;21.452;2023-06-14T12:39:40;97929.72;;;27.72;50.02
10700;BME280;5401;41.986;21.452;2023-06-14T12:45:02;97910.34;;;27.60;50.92
10700;BME280;5401;41.986;21.452;2023-06-14T12:47:52;97878.41;;;27.47;50.57
10700;BME280;5401;41.986;21.452;2023-06-14T12:50:26;97884.59;;;27.64;50.98
10700;BME280;5401;41.986;21.452;2023-06-14T12:53:04;97885.00;;;27.75;50.78
10700;BME280;5401;41.986;21.452;2023-06-14T12:55:40;97878.72;;;27.74;50.97
10700;BME280;5401;41.986;21.452;2023-06-14T12:58:27;97882.34;;;27.87;50.35
10700;BME280;5401;41.986;21.452;2023-06-14T13:01:01;97860.47;;;27.90;50.53
10700;BME280;5401;41.986;21.452;2023-06-14T13:03:43;97882.72;;;28.26;50.09
10700;BME280;5401;41.986;21.452;2023-06-14T13:09:40;97886.41;;;28.30;49.54
10700;BME280;5401;41.986;21.452;2023-06-14T13:12:45;97872.78;;;28.13;49.55
10700;BME280;5401;41.986;21.452;2023-06-14T13:15:21;97902.16;;;28.29;49.69
10700;BME280;5401;41.986;21.452;2023-06-14T13:17:53;97901.50;;;28.32;49.23
10700;BME280;5401;41.986;21.452;2023-06-14T13:23:47;97881.72;;;27.81;50.21
10700;BME280;5401;41.986;21.452;2023-06-14T13:26:25;97918.22;;;27.70;50.51
10700;BME280;5401;41.986;21.452;2023-06-14T13:31:58;97896.50;;;26.94;51.95
10700;BME280;5401;41.986;21.452;2023-06-14T13:34:26;97894.75;;;26.65;52.65
10700;BME280;5401;41.986;21.452;2023-06-14T13:36:57;97899.16;;;26.49;52.97
10700;BME280;5401;41.986;21.452;2023-06-14T13:39:29;97899.31;;;26.27;53.06
10700;BME280;5401;41.986;21.452;2023-06-14T13:41:58;97909.09;;;26.12;53.14